Terminal Aerodrome Forecast
Issued by NWS

Home | Current Version | Previous Version | Text Only | Print | Product List | Glossary On
Versions: 1 2 3 4 5 6 7 8 9 10 11 12 13 14 15 16 17
000
FTAK31 PANC 032336
TAFAGK
TAF
PAGK 032336Z 0400/0424 16015G25KT P6SM SCT050 BKN080
     FM040800 16010KT P6SM SCT050 BKN100
     FM042100 16012G22KT P6SM SCT050 BKN080=

USA.gov is the U.S. government's official web portal to all federal, state and local government web resources and services.